sensor_id;sensor_type;location;lat;lon;timestamp;temperature;humidity
13052;DHT22;6592;47.484;9.726;2023-07-16T00:00:38;24.30;99.90
13052;DHT22;6592;47.484;9.726;2023-07-16T00:03:08;24.40;99.90
13052;DHT22;6592;47.484;9.726;2023-07-16T00:05:37;24.50;99.90
13052;DHT22;6592;47.484;9.726;2023-07-16T00:08:05;24.50;99.90
13052;DHT22;6592;47.484;9.726;2023-07-16T00:10:34;24.50;99.90
13052;DHT22;6592;47.484;9.726;2023-07-16T00:13:03;24.60;99.90
13052;DHT22;6592;47.484;9.726;2023-07-16T00:15:32;24.50;99.90
13052;DHT22;6592;47.484;9.726;2023-07-16T00:18:00;24.50;99.90
13052;DHT22;6592;47.484;9.726;2023-07-16T00:20:30;24.40;99.90
13052;DHT22;6592;47.484;9.726;2023-07-16T00:22:59;24.40;99.90
13052;DHT22;6592;47.484;9.726;2023-07-16T00:25:27;24.20;99.90
13052;DHT22;6592;47.484;9.726;2023-07-16T00:27:55;24.20;99.90
13052;DHT22;6592;47.484;9.726;2023-07-16T00:30:24;24.20;99.90
13052;DHT22;6592;47.484;9.726;2023-07-16T00:32:52;24.10;99.90
13052;DHT22;6592;47.484;9.726;2023-07-16T00:35:20;24.10;99.90
13052;DHT22;6592;47.484;9.726;2023-07-16T00:37:50;24.00;99.90
13052;DHT22;6592;47.484;9.726;2023-07-16T00:40:18;24.00;99.90
13052;DHT22;6592;47.484;9.726;2023-07-16T00:42:46;24.00;99.90
13052;DHT22;6592;47.484;9.726;2023-07-16T00:45:15;24.00;99.90
13052;DHT22;6592;47.484;9.726;2023-07-16T00:47:44;24.00;99.90
13052;DHT22;6592;47.484;9.726;2023-07-16T00:50:12;23.90;99.90
13052;DHT22;6592;47.484;9.726;2023-07-16T00:52:40;24.00;99.90
13052;DHT22;6592;47.484;9.726;2023-07-16T00:55:10;23.90;99.90
13052;DHT22;6592;47.484;9.726;2023-07-16T00:57:39;23.80;99.90
13052;DHT22;6592;47.484;9.726;2023-07-16T01:00:08;23.70;99.90
13052;DHT22;6592;47.484;9.726;2023-07-16T01:02:38;23.70;99.90
13052;DHT22;6592;47.484;9.726;2023-07-16T01:05:07;23.60;99.90
13052;DHT22;6592;47.484;9.726;2023-07-16T01:07:37;23.50;99.90
13052;DHT22;6592;47.484;9.726;2023-07-16T01:10:07;23.50;99.90
13052;DHT22;6592;47.484;9.726;2023-07-16T01:12:37;23.40;99.90
13052;DHT22;6592;47.484;9.726;2023-07-16T01:15:07;23.30;99.90
13052;DHT22;6592;47.484;9.726;2023-07-16T01:17:35;23.20;99.90
13052;DHT22;6592;47.484;9.726;2023-07-16T01:20:04;23.10;99.90
13052;DHT22;6592;47.484;9.726;2023-07-16T01:22:48;23.00;99.90
13052;DHT22;6592;47.484;9.726;2023-07-16T01:25:36;23.00;99.90
13052;DHT22;6592;47.484;9.726;2023-07-16T01:28:27;22.90;99.90
13052;DHT22;6592;47.484;9.726;2023-07-16T01:31:03;22.80;99.90
13052;DHT22;6592;47.484;9.726;2023-07-16T01:33:33;22.70;99.90
13052;DHT22;6592;47.484;9.726;2023-07-16T01:36:02;22.70;99.90
13052;DHT22;6592;47.484;9.726;2023-07-16T01:38:30;22.40;99.90
13052;DHT22;6592;47.484;9.726;2023-07-16T01:40:59;22.20;99.90
13052;DHT22;6592;47.484;9.726;2023-07-16T01:43:27;22.10;99.90
13052;DHT22;6592;47.484;9.726;2023-07-16T01:45:56;21.70;99.90
13052;DHT22;6592;47.484;9.726;2023-07-16T01:48:33;21.40;99.90
13052;DHT22;6592;47.484;9.726;2023-07-16T01:51:02;21.00;99.90
13052;DHT22;6592;47.484;9.726;2023-07-16T01:53:30;20.60;99.90
13052;DHT22;6592;47.484;9.726;2023-07-16T01:56:01;20.30;99.90
13052;DHT22;6592;47.484;9.726;2023-07-16T01:58:30;20.10;99.90
13052;DHT22;6592;47.484;9.726;2023-07-16T02:00:58;19.90;99.90
13052;DHT22;6592;47.484;9.726;2023-07-16T02:03:28;19.80;99.90
13052;DHT22;6592;47.484;9.726;2023-07-16T02:05:56;19.80;99.90
13052;DHT22;6592;47.484;9.726;2023-07-16T02:08:24;19.70;99.90
13052;DHT22;6592;47.484;9.726;2023-07-16T02:10:53;19.70;99.90
13052;DHT22;6592;47.484;9.726;2023-07-16T02:13:21;19.70;99.90
13052;DHT22;6592;47.484;9.726;2023-07-16T02:15:49;19.60;99.90
13052;DHT22;6592;47.484;9.726;2023-07-16T02:18:17;19.50;99.90
13052;DHT22;6592;47.484;9.726;2023-07-16T02:20:47;19.50;99.90
13052;DHT22;6592;47.484;9.726;2023-07-16T02:23:15;19.50;99.90
13052;DHT22;6592;47.484;9.726;2023-07-16T02:25:43;19.40;99.90
13052;DHT22;6592;47.484;9.726;2023-07-16T02:28:12;19.40;99.90
13052;DHT22;6592;47.484;9.726;2023-07-16T02:30:41;19.50;99.90
13052;DHT22;6592;47.484;9.726;2023-07-16T02:33:09;19.50;99.90
13052;DHT22;6592;47.484;9.726;2023-07-16T02:35:37;19.50;99.90
13052;DHT22;6592;47.484;9.726;2023-07-16T02:38:07;19.50;99.90
13052;DHT22;6592;47.484;9.726;2023-07-16T02:40:35;19.50;99.90
13052;DHT22;6592;47.484;9.726;2023-07-16T02:43:03;19.50;99.90
13052;DHT22;6592;47.484;9.726;2023-07-16T02:45:32;19.50;99.90
13052;DHT22;6592;47.484;9.726;2023-07-16T02:48:00;19.60;99.90
13052;DHT22;6592;47.484;9.726;2023-07-16T02:50:28;19.60;99.90
13052;DHT22;6592;47.484;9.726;2023-07-16T02:52:56;19.70;99.90
13052;DHT22;6592;47.484;9.726;2023-07-16T02:55:26;19.70;99.90
13052;DHT22;6592;47.484;9.726;2023-07-16T02:57:54;19.80;99.90
13052;DHT22;6592;47.484;9.726;2023-07-16T03:00:22;19.70;99.90
13052;DHT22;6592;47.484;9.726;2023-07-16T03:02:51;19.70;99.90
13052;DHT22;6592;47.484;9.726;2023-07-16T03:05:19;19.60;99.90
13052;DHT22;6592;47.484;9.726;2023-07-16T03:07:47;19.60;99.90
13052;DHT22;6592;47.484;9.726;2023-07-16T03:10:16;19.50;99.90
13052;DHT22;6592;47.484;9.726;2023-07-16T03:12:45;19.50;99.90
13052;DHT22;6592;47.484;9.726;2023-07-16T03:15:14;19.40;99.90
13052;DHT22;6592;47.484;9.726;2023-07-16T03:17:42;19.40;99.90
13052;DHT22;6592;47.484;9.726;2023-07-16T03:20:11;19.30;99.90
13052;DHT22;6592;47.484;9.726;2023-07-16T03:22:40;19.30;99.90
13052;DHT22;6592;47.484;9.726;2023-07-16T03:25:08;19.30;99.90
13052;DHT22;6592;47.484;9.726;2023-07-16T03:27:37;19.20;99.90
13052;DHT22;6592;47.484;9.726;2023-07-16T03:30:08;19.10;99.90
13052;DHT22;6592;47.484;9.726;2023-07-16T03:32:36;19.10;99.90
13052;DHT22;6592;47.484;9.726;2023-07-16T03:35:18;19.20;99.90
13052;DHT22;6592;47.484;9.726;2023-07-16T03:37:49;19.20;99.90
13052;DHT22;6592;47.484;9.726;2023-07-16T03:40:21;19.30;99.90
13052;DHT22;6592;47.484;9.726;2023-07-16T03:42:50;19.30;99.90
13052;DHT22;6592;47.484;9.726;2023-07-16T03:45:19;19.30;99.90
13052;DHT22;6592;47.484;9.726;2023-07-16T03:47:48;19.20;99.90
13052;DHT22;6592;47.484;9.726;2023-07-16T03:50:16;19.20;99.90
13052;DHT22;6592;47.484;9.726;2023-07-16T03:52:45;19.20;99.90
13052;DHT22;6592;47.484;9.726;2023-07-16T03:55:13;19.20;99.90
13052;DHT22;6592;47.484;9.726;2023-07-16T03:57:42;19.20;99.90
13052;DHT22;6592;47.484;9.726;2023-07-16T04:00:11;19.20;99.90
13052;DHT22;6592;47.484;9.726;2023-07-16T04:02:42;19.20;99.90
13052;DHT22;6592;47.484;9.726;2023-07-16T04:05:10;19.20;99.90
13052;DHT22;6592;47.484;9.726;2023-07-16T04:07:39;19.20;99.90
13052;DHT22;6592;47.484;9.726;2023-07-16T04:10:07;19.10;99.90
13052;DHT22;6592;47.484;9.726;2023-07-16T04:12:36;19.10;99.90
13052;DHT22;6592;47.484;9.726;2023-07-16T04:15:08;19.00;99.90
13052;DHT22;6592;47.484;9.726;2023-07-16T04:17:37;19.00;99.90
13052;DHT22;6592;47.484;9.726;2023-07-16T04:20:08;18.90;99.90
13052;DHT22;6592;47.484;9.726;2023-07-16T04:22:37;18.90;99.90
13052;DHT22;6592;47.484;9.726;2023-07-16T04:25:06;18.90;99.90
13052;DHT22;6592;47.484;9.726;2023-07-16T04:27:34;18.90;99.90
13052;DHT22;6592;47.484;9.726;2023-07-16T04:30:03;18.90;99.90
13052;DHT22;6592;47.484;9.726;2023-07-16T04:32:31;19.00;99.90
13052;DHT22;6592;47.484;9.726;2023-07-16T04:35:00;19.00;99.90
13052;DHT22;6592;47.484;9.726;2023-07-16T04:37:29;19.00;99.90
13052;DHT22;6592;47.484;9.726;2023-07-16T04:39:58;19.00;99.90
13052;DHT22;6592;47.484;9.726;2023-07-16T04:42:26;19.00;99.90
13052;DHT22;6592;47.484;9.726;2023-07-16T04:44:54;19.00;99.90
13052;DHT22;6592;47.484;9.726;2023-07-16T04:47:23;18.90;99.90
13052;DHT22;6592;47.484;9.726;2023-07-16T04:49:51;18.90;99.90
13052;DHT22;6592;47.484;9.726;2023-07-16T04:52:19;19.00;99.90
13052;DHT22;6592;47.484;9.726;2023-07-16T04:54:49;19.00;99.90
13052;DHT22;6592;47.484;9.726;2023-07-16T04:57:17;19.10;99.90
13052;DHT22;6592;47.484;9.726;2023-07-16T04:59:49;19.10;99.90
13052;DHT22;6592;47.484;9.726;2023-07-16T05:02:17;19.20;99.90
13052;DHT22;6592;47.484;9.726;2023-07-16T05:04:45;19.10;99.90
13052;DHT22;6592;47.484;9.726;2023-07-16T05:07:15;19.10;99.90
13052;DHT22;6592;47.484;9.726;2023-07-16T05:09:43;19.20;99.90
13052;DHT22;6592;47.484;9.726;2023-07-16T05:12:13;19.20;99.90
13052;DHT22;6592;47.484;9.726;2023-07-16T05:14:45;19.20;99.90
13052;DHT22;6592;47.484;9.726;2023-07-16T05:17:14;19.30;99.90
13052;DHT22;6592;47.484;9.726;2023-07-16T05:19:42;19.30;99.90
13052;DHT22;6592;47.484;9.726;2023-07-16T05:22:11;19.40;99.90
13052;DHT22;6592;47.484;9.726;2023-07-16T05:24:39;19.40;99.90
13052;DHT22;6592;47.484;9.726;2023-07-16T05:27:07;19.50;99.90
13052;DHT22;6592;47.484;9.726;2023-07-16T05:29:37;19.50;99.90
13052;DHT22;6592;47.484;9.726;2023-07-16T05:32:05;19.50;99.90
13052;DHT22;6592;47.484;9.726;2023-07-16T05:34:34;19.50;99.90
13052;DHT22;6592;47.484;9.726;2023-07-16T05:37:03;19.60;99.90
13052;DHT22;6592;47.484;9.726;2023-07-16T05:39:31;19.60;99.90
13052;DHT22;6592;47.484;9.726;2023-07-16T05:41:59;19.70;99.90
13052;DHT22;6592;47.484;9.726;2023-07-16T05:44:29;19.80;99.90
13052;DHT22;6592;47.484;9.726;2023-07-16T05:46:58;19.90;99.90
13052;DHT22;6592;47.484;9.726;2023-07-16T05:49:27;20.00;99.90
13052;DHT22;6592;47.484;9.726;2023-07-16T05:51:55;20.10;99.90
13052;DHT22;6592;47.484;9.726;2023-07-16T05:54:23;20.10;99.90
13052;DHT22;6592;47.484;9.726;2023-07-16T05:56:52;20.20;99.90
13052;DHT22;6592;47.484;9.726;2023-07-16T05:59:21;20.30;99.90
13052;DHT22;6592;47.484;9.726;2023-07-16T06:01:49;20.40;99.90
13052;DHT22;6592;47.484;9.726;2023-07-16T06:04:19;20.50;99.90
13052;DHT22;6592;47.484;9.726;2023-07-16T06:06:47;20.60;99.90
13052;DHT22;6592;47.484;9.726;2023-07-16T06:09:18;20.70;99.90
13052;DHT22;6592;47.484;9.726;2023-07-16T06:11:47;20.70;99.90
13052;DHT22;6592;47.484;9.726;2023-07-16T06:14:15;20.80;99.90
13052;DHT22;6592;47.484;9.726;2023-07-16T06:16:43;20.80;99.90
13052;DHT22;6592;47.484;9.726;2023-07-16T06:19:12;20.90;99.90
13052;DHT22;6592;47.484;9.726;2023-07-16T06:21:41;20.90;99.90
13052;DHT22;6592;47.484;9.726;2023-07-16T06:24:10;21.00;99.90
13052;DHT22;6592;47.484;9.726;2023-07-16T06:26:43;21.00;99.90
13052;DHT22;6592;47.484;9.726;2023-07-16T06:29:11;21.10;99.90
13052;DHT22;6592;47.484;9.726;2023-07-16T06:31:41;21.10;99.90
13052;DHT22;6592;47.484;9.726;2023-07-16T06:34:10;21.30;99.90
13052;DHT22;6592;47.484;9.726;2023-07-16T06:36:38;21.40;99.90
13052;DHT22;6592;47.484;9.726;2023-07-16T06:39:08;21.50;99.90
13052;DHT22;6592;47.484;9.726;2023-07-16T06:41:37;21.70;99.90
13052;DHT22;6592;47.484;9.726;2023-07-16T06:44:05;21.80;99.90
13052;DHT22;6592;47.484;9.726;2023-07-16T06:46:33;22.00;99.90
13052;DHT22;6592;47.484;9.726;2023-07-16T06:49:02;22.30;99.90
13052;DHT22;6592;47.484;9.726;2023-07-16T06:51:30;22.60;99.90
13052;DHT22;6592;47.484;9.726;2023-07-16T06:53:59;23.10;99.90
13052;DHT22;6592;47.484;9.726;2023-07-16T06:56:29;23.70;99.90
13052;DHT22;6592;47.484;9.726;2023-07-16T06:58:57;24.30;99.90
13052;DHT22;6592;47.484;9.726;2023-07-16T07:01:25;24.80;99.90
13052;DHT22;6592;47.484;9.726;2023-07-16T07:03:55;25.50;99.90
13052;DHT22;6592;47.484;9.726;2023-07-16T07:06:23;25.90;99.90
13052;DHT22;6592;47.484;9.726;2023-07-16T07:08:52;26.40;99.90
13052;DHT22;6592;47.484;9.726;2023-07-16T07:11:20;26.70;99.90
13052;DHT22;6592;47.484;9.726;2023-07-16T07:13:51;27.00;99.90
13052;DHT22;6592;47.484;9.726;2023-07-16T07:16:20;27.30;99.90
13052;DHT22;6592;47.484;9.726;2023-07-16T07:18:48;27.10;99.90
13052;DHT22;6592;47.484;9.726;2023-07-16T07:21:16;27.10;99.90
13052;DHT22;6592;47.484;9.726;2023-07-16T07:23:44;26.90;99.90
13052;DHT22;6592;47.484;9.726;2023-07-16T07:26:13;26.70;99.90
13052;DHT22;6592;47.484;9.726;2023-07-16T07:28:41;26.70;99.90
13052;DHT22;6592;47.484;9.726;2023-07-16T07:31:11;26.70;99.90
13052;DHT22;6592;47.484;9.726;2023-07-16T07:33:39;27.10;99.90
13052;DHT22;6592;47.484;9.726;2023-07-16T07:36:08;27.50;99.90
13052;DHT22;6592;47.484;9.726;2023-07-16T07:38:36;28.10;99.90
13052;DHT22;6592;47.484;9.726;2023-07-16T07:41:04;28.80;99.90
13052;DHT22;6592;47.484;9.726;2023-07-16T07:43:33;28.90;99.90
13052;DHT22;6592;47.484;9.726;2023-07-16T07:46:01;28.90;99.90
13052;DHT22;6592;47.484;9.726;2023-07-16T07:48:31;28.90;99.90
13052;DHT22;6592;47.484;9.726;2023-07-16T07:50:59;28.90;99.90
13052;DHT22;6592;47.484;9.726;2023-07-16T07:53:27;29.40;99.90
13052;DHT22;6592;47.484;9.726;2023-07-16T07:55:55;30.20;99.90
13052;DHT22;6592;47.484;9.726;2023-07-16T07:58:24;30.80;99.90
13052;DHT22;6592;47.484;9.726;2023-07-16T08:00:52;31.30;99.90
13052;DHT22;6592;47.484;9.726;2023-07-16T08:03:20;31.50;99.90
13052;DHT22;6592;47.484;9.726;2023-07-16T08:05:50;32.30;99.90
13052;DHT22;6592;47.484;9.726;2023-07-16T08:08:18;32.80;99.90
13052;DHT22;6592;47.484;9.726;2023-07-16T08:10:46;33.00;99.90
13052;DHT22;6592;47.484;9.726;2023-07-16T08:13:15;33.10;99.90
13052;DHT22;6592;47.484;9.726;2023-07-16T08:15:43;33.40;99.90
13052;DHT22;6592;47.484;9.726;2023-07-16T08:18:11;34.00;99.90
13052;DHT22;6592;47.484;9.726;2023-07-16T08:20:40;34.10;99.90
13052;DHT22;6592;47.484;9.726;2023-07-16T08:23:10;34.50;99.90
13052;DHT22;6592;47.484;9.726;2023-07-16T08:25:38;34.80;99.90
13052;DHT22;6592;47.484;9.726;2023-07-16T08:28:06;35.00;99.90
13052;DHT22;6592;47.484;9.726;2023-07-16T08:30:35;35.40;98.90
13052;DHT22;6592;47.484;9.726;2023-07-16T08:33:03;35.40;96.50
13052;DHT22;6592;47.484;9.726;2023-07-16T08:35:32;35.50;94.50
13052;DHT22;6592;47.484;9.726;2023-07-16T08:38:01;35.40;95.90
13052;DHT22;6592;47.484;9.726;2023-07-16T08:40:31;35.60;95.70
13052;DHT22;6592;47.484;9.726;2023-07-16T08:42:59;35.60;94.60
13052;DHT22;6592;47.484;9.726;2023-07-16T08:45:28;35.60;93.30
13052;DHT22;6592;47.484;9.726;2023-07-16T08:47:57;35.50;92.70
13052;DHT22;6592;47.484;9.726;2023-07-16T08:50:27;35.30;92.90
13052;DHT22;6592;47.484;9.726;2023-07-16T08:52:58;34.50;91.90
13052;DHT22;6592;47.484;9.726;2023-07-16T08:55:27;33.80;94.00
13052;DHT22;6592;47.484;9.726;2023-07-16T08:57:57;33.80;94.70
13052;DHT22;6592;47.484;9.726;2023-07-16T09:00:26;34.00;94.40
13052;DHT22;6592;47.484;9.726;2023-07-16T09:02:55;34.40;95.70
13052;DHT22;6592;47.484;9.726;2023-07-16T09:05:23;34.80;94.10
13052;DHT22;6592;47.484;9.726;2023-07-16T09:08:05;35.40;93.30
13052;DHT22;6592;47.484;9.726;2023-07-16T09:10:34;36.00;92.20
13052;DHT22;6592;47.484;9.726;2023-07-16T09:13:04;36.20;92.50
13052;DHT22;6592;47.484;9.726;2023-07-16T09:15:33;36.30;91.50
13052;DHT22;6592;47.484;9.726;2023-07-16T09:18:02;36.40;91.50
13052;DHT22;6592;47.484;9.726;2023-07-16T09:20:31;36.00;89.60
13052;DHT22;6592;47.484;9.726;2023-07-16T09:22:59;35.10;90.60
13052;DHT22;6592;47.484;9.726;2023-07-16T09:25:28;34.10;93.30
13052;DHT22;6592;47.484;9.726;2023-07-16T09:28:01;34.00;93.90
13052;DHT22;6592;47.484;9.726;2023-07-16T09:30:32;34.30;93.50
13052;DHT22;6592;47.484;9.726;2023-07-16T09:33:10;34.30;91.60
13052;DHT22;6592;47.484;9.726;2023-07-16T09:35:39;33.80;91.90
13052;DHT22;6592;47.484;9.726;2023-07-16T09:38:08;33.40;93.40
13052;DHT22;6592;47.484;9.726;2023-07-16T09:40:38;33.30;92.90
13052;DHT22;6592;47.484;9.726;2023-07-16T09:43:08;32.80;93.60
13052;DHT22;6592;47.484;9.726;2023-07-16T09:45:38;32.50;95.30
13052;DHT22;6592;47.484;9.726;2023-07-16T09:48:06;32.50;94.00
13052;DHT22;6592;47.484;9.726;2023-07-16T09:50:36;32.70;92.50
13052;DHT22;6592;47.484;9.726;2023-07-16T09:53:05;33.10;92.50
13052;DHT22;6592;47.484;9.726;2023-07-16T09:55:35;33.70;93.10
13052;DHT22;6592;47.484;9.726;2023-07-16T09:58:07;34.00;90.80
13052;DHT22;6592;47.484;9.726;2023-07-16T10:00:38;33.70;91.10
13052;DHT22;6592;47.484;9.726;2023-07-16T10:03:07;33.40;89.00
13052;DHT22;6592;47.484;9.726;2023-07-16T10:05:36;32.90;91.00
13052;DHT22;6592;47.484;9.726;2023-07-16T10:08:14;32.10;92.10
13052;DHT22;6592;47.484;9.726;2023-07-16T10:10:44;31.10;92.90
13052;DHT22;6592;47.484;9.726;2023-07-16T10:13:13;30.70;94.00
13052;DHT22;6592;47.484;9.726;2023-07-16T10:15:53;30.30;94.50
13052;DHT22;6592;47.484;9.726;2023-07-16T10:18:26;30.10;94.20
13052;DHT22;6592;47.484;9.726;2023-07-16T10:21:02;30.10;95.30
13052;DHT22;6592;47.484;9.726;2023-07-16T10:23:39;30.70;96.60
13052;DHT22;6592;47.484;9.726;2023-07-16T10:26:09;31.00;95.70
13052;DHT22;6592;47.484;9.726;2023-07-16T10:28:39;31.10;95.20
13052;DHT22;6592;47.484;9.726;2023-07-16T10:31:19;32.00;96.40
13052;DHT22;6592;47.484;9.726;2023-07-16T10:34:04;33.20;94.00
13052;DHT22;6592;47.484;9.726;2023-07-16T10:36:37;33.70;92.90
13052;DHT22;6592;47.484;9.726;2023-07-16T10:39:05;34.00;92.00
13052;DHT22;6592;47.484;9.726;2023-07-16T10:41:34;34.40;92.30
13052;DHT22;6592;47.484;9.726;2023-07-16T10:44:03;34.70;92.00
13052;DHT22;6592;47.484;9.726;2023-07-16T10:46:33;34.90;91.10
13052;DHT22;6592;47.484;9.726;2023-07-16T10:49:02;35.10;90.40
13052;DHT22;6592;47.484;9.726;2023-07-16T10:51:30;35.30;89.70
13052;DHT22;6592;47.484;9.726;2023-07-16T10:53:59;35.20;90.30
13052;DHT22;6592;47.484;9.726;2023-07-16T10:56:27;35.10;90.30
13052;DHT22;6592;47.484;9.726;2023-07-16T10:58:55;35.30;91.10
13052;DHT22;6592;47.484;9.726;2023-07-16T11:01:23;34.80;89.40
13052;DHT22;6592;47.484;9.726;2023-07-16T11:03:53;34.40;90.60
13052;DHT22;6592;47.484;9.726;2023-07-16T11:06:21;34.70;90.40
13052;DHT22;6592;47.484;9.726;2023-07-16T11:08:50;34.20;89.50
13052;DHT22;6592;47.484;9.726;2023-07-16T11:11:28;34.20;90.50
13052;DHT22;6592;47.484;9.726;2023-07-16T11:13:56;33.70;89.60
13052;DHT22;6592;47.484;9.726;2023-07-16T11:16:25;33.90;90.10
13052;DHT22;6592;47.484;9.726;2023-07-16T11:18:55;33.70;91.70
13052;DHT22;6592;47.484;9.726;2023-07-16T11:21:23;33.60;88.50
13052;DHT22;6592;47.484;9.726;2023-07-16T11:23:51;33.10;89.80
13052;DHT22;6592;47.484;9.726;2023-07-16T11:26:20;32.60;90.80
13052;DHT22;6592;47.484;9.726;2023-07-16T11:28:50;32.40;91.00
13052;DHT22;6592;47.484;9.726;2023-07-16T11:31:18;32.60;90.40
13052;DHT22;6592;47.484;9.726;2023-07-16T11:33:50;32.00;89.60
13052;DHT22;6592;47.484;9.726;2023-07-16T11:36:20;31.60;89.90
13052;DHT22;6592;47.484;9.726;2023-07-16T11:38:49;31.20;91.40
13052;DHT22;6592;47.484;9.726;2023-07-16T11:41:20;31.30;92.10
13052;DHT22;6592;47.484;9.726;2023-07-16T11:43:48;31.30;92.40
13052;DHT22;6592;47.484;9.726;2023-07-16T11:46:17;31.50;92.70
13052;DHT22;6592;47.484;9.726;2023-07-16T11:48:46;31.60;92.50
13052;DHT22;6592;47.484;9.726;2023-07-16T11:51:14;31.30;92.40
13052;DHT22;6592;47.484;9.726;2023-07-16T11:53:43;31.40;93.00
13052;DHT22;6592;47.484;9.726;2023-07-16T11:56:12;31.60;92.40
13052;DHT22;6592;47.484;9.726;2023-07-16T11:58:41;31.00;92.90
13052;DHT22;6592;47.484;9.726;2023-07-16T12:01:09;31.30;93.50
13052;DHT22;6592;47.484;9.726;2023-07-16T12:03:38;31.50;93.20
13052;DHT22;6592;47.484;9.726;2023-07-16T12:06:07;31.70;92.80
13052;DHT22;6592;47.484;9.726;2023-07-16T12:08:36;31.90;91.60
13052;DHT22;6592;47.484;9.726;2023-07-16T12:11:05;32.30;91.60
13052;DHT22;6592;47.484;9.726;2023-07-16T12:13:34;32.50;91.20
13052;DHT22;6592;47.484;9.726;2023-07-16T12:16:02;32.90;91.80
13052;DHT22;6592;47.484;9.726;2023-07-16T12:18:30;33.00;91.90
13052;DHT22;6592;47.484;9.726;2023-07-16T12:20:59;33.30;92.90
13052;DHT22;6592;47.484;9.726;2023-07-16T12:23:27;33.70;91.20
13052;DHT22;6592;47.484;9.726;2023-07-16T12:25:55;34.20;91.20
13052;DHT22;6592;47.484;9.726;2023-07-16T12:28:25;34.30;89.50
13052;DHT22;6592;47.484;9.726;2023-07-16T12:30:53;34.20;90.00
13052;DHT22;6592;47.484;9.726;2023-07-16T12:33:22;34.30;90.90
13052;DHT22;6592;47.484;9.726;2023-07-16T12:35:51;34.30;89.70
13052;DHT22;6592;47.484;9.726;2023-07-16T12:38:21;34.30;92.00
13052;DHT22;6592;47.484;9.726;2023-07-16T12:40:49;34.30;92.20
13052;DHT22;6592;47.484;9.726;2023-07-16T12:43:17;34.30;90.50
13052;DHT22;6592;47.484;9.726;2023-07-16T12:45:47;34.40;91.00
13052;DHT22;6592;47.484;9.726;2023-07-16T12:48:15;34.30;90.40
13052;DHT22;6592;47.484;9.726;2023-07-16T12:50:44;34.10;90.00
13052;DHT22;6592;47.484;9.726;2023-07-16T12:53:12;33.90;90.60
13052;DHT22;6592;47.484;9.726;2023-07-16T12:55:41;33.50;91.30
13052;DHT22;6592;47.484;9.726;2023-07-16T12:58:09;33.30;93.80
13052;DHT22;6592;47.484;9.726;2023-07-16T13:00:37;33.10;94.50
13052;DHT22;6592;47.484;9.726;2023-07-16T13:03:07;32.60;93.30
13052;DHT22;6592;47.484;9.726;2023-07-16T13:05:38;32.30;94.00
13052;DHT22;6592;47.484;9.726;2023-07-16T13:08:07;32.00;93.50
13052;DHT22;6592;47.484;9.726;2023-07-16T13:10:35;31.80;94.70
13052;DHT22;6592;47.484;9.726;2023-07-16T13:13:03;31.60;95.10
13052;DHT22;6592;47.484;9.726;2023-07-16T13:15:32;31.20;95.20
13052;DHT22;6592;47.484;9.726;2023-07-16T13:18:00;31.00;95.30
13052;DHT22;6592;47.484;9.726;2023-07-16T13:20:31;30.90;96.20
13052;DHT22;6592;47.484;9.726;2023-07-16T13:22:59;30.80;95.30
13052;DHT22;6592;47.484;9.726;2023-07-16T13:25:27;30.80;96.60
13052;DHT22;6592;47.484;9.726;2023-07-16T13:27:56;30.50;95.80
13052;DHT22;6592;47.484;9.726;2023-07-16T13:30:24;30.40;96.60
13052;DHT22;6592;47.484;9.726;2023-07-16T13:32:53;30.30;96.80
13052;DHT22;6592;47.484;9.726;2023-07-16T13:35:23;30.30;97.40
13052;DHT22;6592;47.484;9.726;2023-07-16T13:37:53;30.40;96.60
13052;DHT22;6592;47.484;9.726;2023-07-16T13:40:21;30.30;96.80
13052;DHT22;6592;47.484;9.726;2023-07-16T13:42:49;30.20;96.00
13052;DHT22;6592;47.484;9.726;2023-07-16T13:45:18;30.10;96.40
13052;DHT22;6592;47.484;9.726;2023-07-16T13:47:46;30.10;96.50
13052;DHT22;6592;47.484;9.726;2023-07-16T13:50:15;30.20;97.40
13052;DHT22;6592;47.484;9.726;2023-07-16T13:52:43;30.20;96.70
13052;DHT22;6592;47.484;9.726;2023-07-16T13:55:12;30.10;97.20
13052;DHT22;6592;47.484;9.726;2023-07-16T13:57:41;30.20;99.30
13052;DHT22;6592;47.484;9.726;2023-07-16T14:00:11;30.10;99.00
13052;DHT22;6592;47.484;9.726;2023-07-16T14:02:39;30.10;98.80
13052;DHT22;6592;47.484;9.726;2023-07-16T14:05:08;30.00;98.30
13052;DHT22;6592;47.484;9.726;2023-07-16T14:07:36;30.00;98.40
13052;DHT22;6592;47.484;9.726;2023-07-16T14:10:06;30.00;98.10
13052;DHT22;6592;47.484;9.726;2023-07-16T14:12:36;29.90;98.30
13052;DHT22;6592;47.484;9.726;2023-07-16T14:15:05;29.90;98.20
13052;DHT22;6592;47.484;9.726;2023-07-16T14:17:34;29.70;98.40
13052;DHT22;6592;47.484;9.726;2023-07-16T14:20:03;29.70;98.10
13052;DHT22;6592;47.484;9.726;2023-07-16T14:22:32;29.60;98.50
13052;DHT22;6592;47.484;9.726;2023-07-16T14:25:00;29.70;98.40
13052;DHT22;6592;47.484;9.726;2023-07-16T14:27:29;29.60;97.80
13052;DHT22;6592;47.484;9.726;2023-07-16T14:30:00;29.60;98.50
13052;DHT22;6592;47.484;9.726;2023-07-16T14:32:33;29.40;98.70
13052;DHT22;6592;47.484;9.726;2023-07-16T14:35:01;29.40;99.50
13052;DHT22;6592;47.484;9.726;2023-07-16T14:37:30;29.30;98.90
13052;DHT22;6592;47.484;9.726;2023-07-16T14:39:59;29.30;99.10
13052;DHT22;6592;47.484;9.726;2023-07-16T14:42:27;29.30;99.20
13052;DHT22;6592;47.484;9.726;2023-07-16T14:44:55;29.30;99.10
13052;DHT22;6592;47.484;9.726;2023-07-16T14:47:25;29.40;99.90
13052;DHT22;6592;47.484;9.726;2023-07-16T14:49:53;29.40;99.90
13052;DHT22;6592;47.484;9.726;2023-07-16T14:52:22;29.50;99.90
13052;DHT22;6592;47.484;9.726;2023-07-16T14:54:50;29.60;99.90
13052;DHT22;6592;47.484;9.726;2023-07-16T14:57:18;29.60;99.00
13052;DHT22;6592;47.484;9.726;2023-07-16T14:59:47;29.50;99.40
13052;DHT22;6592;47.484;9.726;2023-07-16T15:02:16;29.50;99.90
13052;DHT22;6592;47.484;9.726;2023-07-16T15:04:45;29.50;99.40
13052;DHT22;6592;47.484;9.726;2023-07-16T15:07:14;29.60;98.80
13052;DHT22;6592;47.484;9.726;2023-07-16T15:09:42;29.60;99.50
13052;DHT22;6592;47.484;9.726;2023-07-16T15:12:11;29.60;99.10
13052;DHT22;6592;47.484;9.726;2023-07-16T15:14:39;29.70;99.20
13052;DHT22;6592;47.484;9.726;2023-07-16T15:17:07;29.70;99.60
13052;DHT22;6592;47.484;9.726;2023-07-16T15:19:36;29.70;99.90
13052;DHT22;6592;47.484;9.726;2023-07-16T15:22:06;29.70;99.90
13052;DHT22;6592;47.484;9.726;2023-07-16T15:24:36;29.60;99.90
13052;DHT22;6592;47.484;9.726;2023-07-16T15:27:05;29.50;99.90
13052;DHT22;6592;47.484;9.726;2023-07-16T15:29:34;29.50;99.90
13052;DHT22;6592;47.484;9.726;2023-07-16T15:32:02;29.40;99.90
13052;DHT22;6592;47.484;9.726;2023-07-16T15:34:31;29.40;99.90
13052;DHT22;6592;47.484;9.726;2023-07-16T15:36:59;29.40;99.80
13052;DHT22;6592;47.484;9.726;2023-07-16T15:39:29;29.20;99.20
13052;DHT22;6592;47.484;9.726;2023-07-16T15:41:57;29.20;99.90
13052;DHT22;6592;47.484;9.726;2023-07-16T15:44:26;29.10;99.50
13052;DHT22;6592;47.484;9.726;2023-07-16T15:46:54;29.10;99.70
13052;DHT22;6592;47.484;9.726;2023-07-16T15:49:23;29.10;99.40
13052;DHT22;6592;47.484;9.726;2023-07-16T15:51:51;29.20;99.90
13052;DHT22;6592;47.484;9.726;2023-07-16T15:54:20;29.20;99.90
13052;DHT22;6592;47.484;9.726;2023-07-16T15:56:50;29.10;99.90